Aviation Digital Data Service (ADDS)

Output produced by METARs form (1225 UTC 26 January 2015)
found at http://www.aviationweather.gov/adds/metars/
 
METAR text: EPBY 261200Z 23007KT 200V260 9999 SCT014 BKN033 01/M01 Q1021
Conditions at: EPBY (BYDGOSZDZ , PL) observed 1200 UTC 26 January 2015
Temperature: 1.0°C (34°F)
Dewpoint: -1.0°C (30°F) [RH = 86%]
Pressure (altimeter): 30.15 inches Hg (1021.0 mb)
Winds: from the SW (230 degrees) at 8 MPH (7 knots; 3.6 m/s)
Visibility: 6 or more miles (10+ km)
Ceiling: 3300 feet AGL
Clouds: scattered clouds at 1400 feet AGL
broken clouds at 3300 feet AGL
Weather: no significant weather observed at this time

Forecast for: EPBY (BYDGOSZDZ , PL)
Text: TAF EPBY 261130Z 2612/2621 21007KT 8000 SCT015 BKN035
Forecast period: 1200 to 2100 UTC 26 January 2015
Forecast type: FROM: standard forecast or significant change
Winds: from the SSW (210 degrees) at 8 MPH (7 knots; 3.6 m/s)
Visibility: 5 miles (8 km)
Ceiling: 3500 feet AGL
Clouds: scattered clouds at 1500 feet AGL
broken clouds at 3500 feet AGL
Weather: no significant weather forecast for this period